Time;durP1;ratioP1;P1;durP2;ratioP2;P2;SDS_P1;SDS_P2;PMS_P1;PMS_P2;Temp;Humidity;BMP_temperature;BMP_pressure;BME280_temperature;BME280_humidity;BME280_pressure;Samples;Min_cycle;Max_cycle;Signal;HPM_P1;HPM_P2
2023/05/31 00:00:30;;;;;;;10.43;3.75;;;;;;;14.41;100.00;102709.31;4972891;28;20047;-68
2023/05/31 00:02:57;;;;;;;10.38;3.28;;;;;;;14.27;100.00;102708.75;4961232;28;20462;-68
2023/05/31 00:05:23;;;;;;;10.70;3.55;;;;;;;14.20;100.00;102713.25;4954441;28;20051;-67
2023/05/31 00:07:50;;;;;;;9.68;3.20;;;;;;;14.07;100.00;102720.56;4953781;29;20139;-67
2023/05/31 00:10:17;;;;;;;7.70;2.33;;;;;;;14.27;100.00;102714.91;4953574;28;20050;-67
2023/05/31 00:12:44;;;;;;;11.90;3.40;;;;;;;14.20;100.00;102708.88;4954422;29;20105;-67
2023/05/31 00:15:11;;;;;;;9.13;3.33;;;;;;;14.27;100.00;102714.91;4963568;28;20047;-67
2023/05/31 00:17:37;;;;;;;10.35;3.05;;;;;;;14.09;100.00;102705.59;4954384;28;20144;-67
2023/05/31 00:20:07;;;;;;;10.15;3.63;;;;;;;13.97;100.00;102713.75;4953674;28;20059;-67
2023/05/31 00:22:34;;;;;;;9.43;3.15;;;;;;;14.01;100.00;102718.06;4954656;28;20055;-67
2023/05/31 00:25:01;;;;;;;11.95;3.10;;;;;;;13.98;100.00;102715.50;4953194;28;20058;-67
2023/05/31 00:27:27;;;;;;;9.68;3.03;;;;;;;14.03;100.00;102722.41;4954383;29;20510;-67
2023/05/31 00:29:54;;;;;;;9.10;3.60;;;;;;;13.79;100.00;102713.25;4954517;28;20134;-67
2023/05/31 00:32:21;;;;;;;10.55;3.40;;;;;;;13.75;100.00;102721.22;4957553;28;20093;-67
2023/05/31 00:34:48;;;;;;;12.90;3.22;;;;;;;13.93;100.00;102717.34;4957622;28;20478;-67
2023/05/31 00:37:14;;;;;;;9.88;2.88;;;;;;;14.10;100.00;102709.97;4957649;28;20416;-67
2023/05/31 00:39:41;;;;;;;9.25;3.00;;;;;;;14.16;100.00;102714.25;4954147;29;20135;-68
2023/05/31 00:42:08;;;;;;;9.15;2.83;;;;;;;14.27;100.00;102699.09;4953961;29;20154;-67
2023/05/31 00:44:36;;;;;;;10.95;3.88;;;;;;;14.48;100.00;102718.81;4953587;29;20094;-68
2023/05/31 00:47:03;;;;;;;11.73;3.65;;;;;;;14.20;100.00;102705.34;4933674;29;20087;-68
2023/05/31 00:49:30;;;;;;;13.52;3.55;;;;;;;14.16;100.00;102722.16;4952261;28;20059;-67
2023/05/31 00:51:57;;;;;;;11.57;4.30;;;;;;;13.96;100.00;102701.50;4964870;28;20513;-67
2023/05/31 00:54:24;;;;;;;10.60;3.58;;;;;;;13.95;100.00;102711.16;4957206;28;20129;-68
2023/05/31 00:56:52;;;;;;;10.63;3.63;;;;;;;14.00;100.00;102700.53;4953862;28;20138;-68
2023/05/31 00:59:19;;;;;;;10.95;3.38;;;;;;;13.90;100.00;102686.69;4955323;28;20055;-67
2023/05/31 01:01:46;;;;;;;10.77;3.65;;;;;;;14.12;100.00;102695.00;4973280;28;20073;-67
2023/05/31 01:04:13;;;;;;;10.50;3.05;;;;;;;14.17;100.00;102682.59;4957554;28;20146;-67
2023/05/31 01:06:39;;;;;;;11.48;3.00;;;;;;;14.06;100.00;102687.25;4954737;28;20066;-67
2023/05/31 01:09:09;;;;;;;8.82;2.72;;;;;;;13.98;100.00;102645.25;4963566;28;20082;-67
2023/05/31 01:12:21;;;;;;;11.32;3.58;;;;;;;13.89;100.00;102687.56;4972074;28;20047;-67
2023/05/31 01:15:17;;;;;;;10.00;2.72;;;;;;;13.93;100.00;102673.44;4954820;28;20476;-68
2023/05/31 01:18:03;;;;;;;11.82;2.92;;;;;;;14.17;100.00;102674.69;4952492;29;20142;-67
2023/05/31 01:20:35;;;;;;;10.95;3.67;;;;;;;14.10;100.00;102674.88;4950108;28;20062;-67
2023/05/31 01:23:30;;;;;;;10.88;2.80;;;;;;;14.24;100.00;102680.69;4972107;28;20077;-69
2023/05/31 01:26:29;;;;;;;12.07;3.85;;;;;;;14.18;100.00;102683.47;4941379;29;20386;-67
2023/05/31 01:29:00;;;;;;;15.30;4.35;;;;;;;13.94;100.00;102669.06;4951085;28;20137;-67
2023/05/31 01:31:30;;;;;;;14.85;4.43;;;;;;;13.71;100.00;102677.44;4966985;28;20508;-68
2023/05/31 01:33:57;;;;;;;13.25;3.97;;;;;;;13.71;100.00;102664.28;4964321;28;20086;-68
2023/05/31 01:36:24;;;;;;;10.43;3.65;;;;;;;13.79;100.00;102672.84;4955499;28;20105;-68
2023/05/31 01:38:51;;;;;;;14.38;4.43;;;;;;;13.67;100.00;102677.47;4965599;28;20508;-68
2023/05/31 01:41:20;;;;;;;14.55;4.47;;;;;;;13.58;100.00;102647.81;4964044;28;20138;-68
2023/05/31 01:43:49;;;;;;;11.45;3.33;;;;;;;13.72;100.00;102684.41;4972561;28;20085;-68
2023/05/31 01:46:18;;;;;;;11.90;3.88;;;;;;;14.02;100.00;102677.66;4961187;28;20063;-68
2023/05/31 01:48:46;;;;;;;13.60;4.05;;;;;;;14.00;100.00;102677.69;4968649;28;20142;-68
2023/05/31 01:51:14;;;;;;;12.45;3.70;;;;;;;13.96;100.00;102683.91;4962998;28;20106;-68
2023/05/31 01:53:42;;;;;;;10.75;3.45;;;;;;;13.91;100.00;102674.38;4962796;28;20085;-68
2023/05/31 01:56:09;;;;;;;12.90;3.90;;;;;;;13.94;100.00;102677.81;4960006;28;20397;-68
2023/05/31 01:58:41;;;;;;;9.90;3.92;;;;;;;13.90;100.00;102673.53;4971955;28;20058;-68
2023/05/31 02:01:11;;;;;;;16.65;4.97;;;;;;;13.62;100.00;102673.22;4971700;28;20081;-68
2023/05/31 02:03:39;;;;;;;13.73;3.95;;;;;;;13.65;100.00;102675.75;4954368;28;20386;-68
2023/05/31 02:06:06;;;;;;;13.43;4.25;;;;;;;13.86;100.00;102679.72;4955959;28;20288;-67
2023/05/31 02:08:33;;;;;;;10.82;3.97;;;;;;;14.00;100.00;102676.81;4971310;28;20411;-68
2023/05/31 02:10:59;;;;;;;13.57;4.40;;;;;;;13.95;100.00;102678.69;4971347;28;20082;-68
2023/05/31 02:13:28;;;;;;;10.60;3.60;;;;;;;13.94;100.00;102675.19;4967851;28;20485;-68
2023/05/31 02:15:55;;;;;;;14.02;4.80;;;;;;;13.75;100.00;102673.84;4959053;28;20452;-67
2023/05/31 02:18:22;;;;;;;14.63;4.25;;;;;;;13.55;100.00;102671.59;4933769;29;20077;-67
2023/05/31 02:20:49;;;;;;;9.90;3.45;;;;;;;13.67;100.00;102669.59;4955122;28;20454;-68
2023/05/31 02:23:16;;;;;;;9.85;3.03;;;;;;;13.79;100.00;102652.69;4961762;28;20047;-67
2023/05/31 02:25:47;;;;;;;10.98;3.47;;;;;;;13.98;100.00;102683.88;4951232;28;20053;-67
2023/05/31 02:28:14;;;;;;;11.00;3.88;;;;;;;13.95;100.00;102671.66;4967176;28;20059;-67
2023/05/31 02:30:41;;;;;;;11.43;3.70;;;;;;;13.90;100.00;102680.53;4971077;28;20053;-67
2023/05/31 02:33:08;;;;;;;10.20;3.58;;;;;;;14.14;100.00;102679.16;4968284;28;20042;-67
2023/05/31 02:35:35;;;;;;;7.65;2.78;;;;;;;14.23;100.00;102671.06;4955270;28;20492;-67
2023/05/31 02:38:02;;;;;;;12.80;3.50;;;;;;;14.30;100.00;102674.44;4958620;28;20134;-67
2023/05/31 02:40:29;;;;;;;10.80;3.45;;;;;;;14.24;100.00;102662.25;4964439;28;20057;-67
2023/05/31 02:42:55;;;;;;;14.57;5.00;;;;;;;14.25;100.00;102666.59;4962895;28;20051;-68
2023/05/31 02:45:22;;;;;;;10.25;3.30;;;;;;;14.23;100.00;102666.63;4953870;28;20461;-67
2023/05/31 02:47:49;;;;;;;14.23;3.88;;;;;;;14.13;100.00;102661.59;4963025;28;20049;-67
2023/05/31 02:50:16;;;;;;;12.27;4.60;;;;;;;14.18;100.00;102643.94;4960385;28;20051;-67
2023/05/31 02:52:42;;;;;;;10.18;3.55;;;;;;;14.23;100.00;102652.59;4953878;28;20462;-67
2023/05/31 02:55:09;;;;;;;14.45;5.13;;;;;;;14.14;100.00;102608.03;4955731;28;20134;-67
2023/05/31 02:57:36;;;;;;;14.52;5.70;;;;;;;14.05;100.00;102643.34;4954040;28;20055;-67
2023/05/31 03:00:22;;;;;;;13.95;4.18;;;;;;;14.10;100.00;102653.81;4971302;28;20129;-67
2023/05/31 03:02:48;;;;;;;11.52;4.35;;;;;;;13.87;100.00;102636.72;4961786;28;20054;-67
2023/05/31 03:05:16;;;;;;;8.52;3.08;;;;;;;13.85;100.00;102634.13;4957102;28;20087;-68
2023/05/31 03:07:43;;;;;;;10.38;3.80;;;;;;;14.10;100.00;102644.13;4955405;28;20089;-67
2023/05/31 03:10:10;;;;;;;9.63;3.03;;;;;;;14.20;100.00;102640.38;4951690;28;20055;-67
2023/05/31 03:12:37;;;;;;;8.57;3.33;;;;;;;14.46;100.00;102648.59;4952529;28;20486;-67
2023/05/31 03:15:04;;;;;;;9.73;2.92;;;;;;;14.31;100.00;102645.41;4954987;28;20489;-67
2023/05/31 03:17:31;;;;;;;9.88;4.03;;;;;;;14.28;100.00;102644.63;4955193;29;20082;-67
2023/05/31 03:19:58;;;;;;;11.27;4.03;;;;;;;14.34;100.00;102645.34;4955779;28;20059;-67
2023/05/31 03:22:25;;;;;;;9.80;3.55;;;;;;;14.29;100.00;102638.44;4955667;29;20077;-67
2023/05/31 03:24:52;;;;;;;15.48;5.13;;;;;;;14.34;100.00;102647.97;4954453;28;20136;-67
2023/05/31 03:27:19;;;;;;;12.43;3.85;;;;;;;14.28;100.00;102652.53;4955489;28;20110;-67
2023/05/31 03:29:46;;;;;;;12.40;3.88;;;;;;;14.30;100.00;102654.19;4954904;29;20098;-67
2023/05/31 03:32:13;;;;;;;9.43;3.00;;;;;;;14.30;100.00;102648.06;4954925;28;20102;-68
2023/05/31 03:34:40;;;;;;;8.48;3.45;;;;;;;14.05;100.00;102643.34;4953999;28;20508;-67
2023/05/31 03:37:06;;;;;;;10.80;4.15;;;;;;;14.08;100.00;102638.03;4954494;28;20102;-67
2023/05/31 03:39:33;;;;;;;13.38;4.25;;;;;;;14.18;100.00;102651.84;4955250;29;20077;-67
2023/05/31 03:42:01;;;;;;;9.80;3.40;;;;;;;14.14;100.00;102651.03;4955527;28;20051;-67
2023/05/31 03:44:28;;;;;;;8.23;3.22;;;;;;;14.09;100.00;102655.53;4953794;29;20047;-67
2023/05/31 03:46:54;;;;;;;10.73;3.67;;;;;;;14.00;100.00;102659.25;4937467;29;20102;-67
2023/05/31 03:49:21;;;;;;;9.85;3.83;;;;;;;14.08;100.00;102645.03;4955119;28;20051;-67
2023/05/31 03:51:48;;;;;;;9.43;3.45;;;;;;;14.07;100.00;102651.22;4955311;28;20055;-67
2023/05/31 03:54:15;;;;;;;10.35;3.30;;;;;;;13.98;100.00;102654.91;4954539;29;20063;-68
2023/05/31 03:56:41;;;;;;;10.57;3.50;;;;;;;13.88;100.00;102656.88;4954435;28;20094;-67
2023/05/31 03:59:08;;;;;;;9.23;3.75;;;;;;;13.97;100.00;102659.31;4954546;28;20130;-67
2023/05/31 04:01:35;;;;;;;8.75;3.17;;;;;;;13.83;100.00;102646.44;4954789;28;20089;-67
2023/05/31 04:04:02;;;;;;;8.95;3.13;;;;;;;13.88;100.00;102648.97;4956802;28;20086;-67
2023/05/31 04:06:29;;;;;;;8.60;3.03;;;;;;;14.00;100.00;102661.88;4953830;29;20058;-68
2023/05/31 04:08:56;;;;;;;9.07;3.30;;;;;;;13.94;100.00;102655.91;4954392;29;20138;-67
2023/05/31 04:11:23;;;;;;;9.73;3.03;;;;;;;13.97;100.00;102661.06;4954839;28;20118;-67
2023/05/31 04:13:50;;;;;;;8.38;2.83;;;;;;;13.89;100.00;102652.50;4953880;28;20121;-67
2023/05/31 04:16:17;;;;;;;10.02;3.50;;;;;;;13.93;100.00;102664.69;4938751;28;20383;-67
2023/05/31 04:18:43;;;;;;;10.32;3.40;;;;;;;13.86;100.00;102656.03;4953442;29;20059;-67
2023/05/31 04:21:10;;;;;;;6.95;2.40;;;;;;;13.86;100.00;102669.19;4954596;28;20114;-68
2023/05/31 04:23:37;;;;;;;8.30;3.00;;;;;;;13.81;100.00;102671.94;4953916;28;20134;-68
2023/05/31 04:26:04;;;;;;;11.05;3.67;;;;;;;13.72;100.00;102660.72;4947799;28;20063;-69
2023/05/31 04:28:31;;;;;;;9.00;3.08;;;;;;;13.70;100.00;102652.84;4953106;29;20047;-68
2023/05/31 04:30:58;;;;;;;8.95;3.30;;;;;;;13.80;100.00;102653.53;4954065;28;20592;-67
2023/05/31 04:33:29;;;;;;;13.27;3.50;;;;;;;13.71;100.00;102656.38;4966821;28;20109;-67
2023/05/31 04:35:57;;;;;;;12.38;3.50;;;;;;;13.76;100.00;102651.88;4953489;29;20058;-68
2023/05/31 04:38:27;;;;;;;8.57;3.15;;;;;;;13.83;100.00;102662.25;4953422;28;20055;-68
2023/05/31 04:40:56;;;;;;;12.85;4.30;;;;;;;13.68;100.00;102659.91;4953271;29;20055;-68
2023/05/31 04:43:27;;;;;;;11.93;4.40;;;;;;;13.51;100.00;102660.25;4953904;28;20048;-67
2023/05/31 04:45:54;;;;;;;8.68;3.10;;;;;;;13.57;100.00;102659.28;4952164;29;20520;-67
2023/05/31 04:48:21;;;;;;;11.85;3.28;;;;;;;13.78;100.00;102673.78;4953556;28;20130;-67
2023/05/31 04:50:48;;;;;;;11.07;3.25;;;;;;;13.72;100.00;102671.25;4954523;29;20053;-67
2023/05/31 04:53:15;;;;;;;9.02;3.22;;;;;;;13.67;100.00;102671.34;4953628;29;20055;-67
2023/05/31 04:55:42;;;;;;;9.90;3.65;;;;;;;13.71;100.00;102667.75;4953234;28;20070;-67
2023/05/31 04:58:09;;;;;;;11.80;3.85;;;;;;;13.62;100.00;102662.69;4953836;28;20059;-68
2023/05/31 05:00:36;;;;;;;10.15;3.53;;;;;;;13.67;100.00;102666.94;4953873;29;20057;-68
2023/05/31 05:03:03;;;;;;;11.20;3.55;;;;;;;13.61;100.00;102661.78;4953474;28;20141;-68
2023/05/31 05:05:31;;;;;;;11.95;4.20;;;;;;;13.62;100.00;102660.06;4954061;28;20059;-68
2023/05/31 05:07:58;;;;;;;15.10;4.43;;;;;;;13.77;100.00;102657.09;4954586;28;20050;-68
2023/05/31 05:10:25;;;;;;;11.45;3.80;;;;;;;13.81;100.00;102671.06;4955538;28;20139;-68
2023/05/31 05:12:51;;;;;;;9.38;3.28;;;;;;;13.69;100.00;102656.41;4953703;28;20486;-68
2023/05/31 05:15:18;;;;;;;11.32;3.75;;;;;;;13.70;100.00;102655.47;4952650;29;20070;-68
2023/05/31 05:17:45;;;;;;;10.95;3.90;;;;;;;13.62;100.00;102666.19;4952676;28;20461;-68
2023/05/31 05:20:13;;;;;;;9.40;3.13;;;;;;;13.53;100.00;102662.84;4936908;29;20453;-68
2023/05/31 05:22:41;;;;;;;13.15;3.47;;;;;;;13.62;100.00;102670.59;4953044;29;20051;-68
2023/05/31 05:25:08;;;;;;;10.73;4.07;;;;;;;13.57;100.00;102670.66;4951849;28;20058;-68
2023/05/31 05:27:35;;;;;;;20.13;4.43;;;;;;;13.62;100.00;102671.44;4956091;28;20057;-69
2023/05/31 05:30:03;;;;;;;17.38;4.97;;;;;;;13.72;100.00;102674.75;4954578;28;20047;-68
2023/05/31 05:32:29;;;;;;;13.68;5.10;;;;;;;13.54;100.00;102673.34;4955381;28;20069;-68
2023/05/31 05:34:56;;;;;;;13.32;3.97;;;;;;;13.69;100.00;102666.94;4952655;29;20047;-68
2023/05/31 05:37:23;;;;;;;12.63;4.05;;;;;;;13.74;100.00;102661.56;4952097;28;20054;-68
2023/05/31 05:39:49;;;;;;;10.40;3.42;;;;;;;13.66;100.00;102649.41;4969757;28;20109;-68
2023/05/31 05:42:16;;;;;;;16.02;5.10;;;;;;;13.80;100.00;102671.97;4958080;28;20097;-67
2023/05/31 05:44:43;;;;;;;13.75;4.30;;;;;;;13.81;100.00;102674.56;4962259;28;20042;-68
2023/05/31 05:47:10;;;;;;;9.30;3.55;;;;;;;13.79;100.00;102668.47;4958150;28;20478;-68
2023/05/31 05:49:36;;;;;;;10.07;3.35;;;;;;;13.77;100.00;102667.63;4962846;28;20515;-68
2023/05/31 05:52:03;;;;;;;16.08;4.68;;;;;;;13.89;100.00;102663.88;4961910;28;20553;-68
2023/05/31 05:54:30;;;;;;;13.18;4.45;;;;;;;13.72;100.00;102666.84;4960344;28;20122;-68
2023/05/31 05:56:57;;;;;;;12.00;4.68;;;;;;;13.51;100.00;102662.91;4962213;28;20413;-68
2023/05/31 05:59:24;;;;;;;12.07;4.22;;;;;;;13.67;100.00;102671.34;4966723;28;20051;-68
2023/05/31 06:01:50;;;;;;;11.73;3.90;;;;;;;13.62;100.00;102667.94;4969480;28;20054;-68
2023/05/31 06:04:17;;;;;;;12.05;5.15;;;;;;;13.53;100.00;102665.47;4950739;29;20405;-68
2023/05/31 06:06:44;;;;;;;11.68;4.18;;;;;;;13.61;100.00;102668.84;4950154;28;20222;-68
2023/05/31 06:09:12;;;;;;;14.00;4.43;;;;;;;13.54;100.00;102665.44;4933319;29;20047;-68
2023/05/31 06:11:39;;;;;;;15.20;4.90;;;;;;;13.51;100.00;102664.63;4959793;28;20047;-68
2023/05/31 06:14:05;;;;;;;14.57;4.85;;;;;;;13.45;100.00;102655.97;4954778;28;20051;-68
2023/05/31 06:16:33;;;;;;;15.88;4.50;;;;;;;13.58;100.00;102672.41;4951910;28;20051;-68
2023/05/31 06:19:00;;;;;;;15.43;4.72;;;;;;;13.47;100.00;102662.09;4959637;28;20053;-68
2023/05/31 06:21:26;;;;;;;10.55;4.40;;;;;;;13.65;100.00;102673.13;4961278;28;20047;-68
2023/05/31 06:23:53;;;;;;;13.68;5.20;;;;;;;13.50;100.00;102665.56;4959148;28;20066;-68
2023/05/31 06:26:20;;;;;;;10.23;3.95;;;;;;;13.43;100.00;102670.91;4955055;28;20065;-68
2023/05/31 06:28:47;;;;;;;10.23;4.25;;;;;;;13.21;100.00;102667.78;4953908;28;20051;-68
2023/05/31 06:31:14;;;;;;;12.85;4.35;;;;;;;13.34;100.00;102663.19;4967122;28;20061;-68
2023/05/31 06:33:41;;;;;;;13.63;4.78;;;;;;;13.36;100.00;102661.41;4946272;28;20050;-68
2023/05/31 06:36:08;;;;;;;14.52;5.60;;;;;;;13.29;100.00;102668.50;4956433;28;20520;-68
2023/05/31 06:38:35;;;;;;;13.32;4.38;;;;;;;13.41;100.00;102663.97;4959069;28;20622;-68
2023/05/31 06:41:01;;;;;;;13.38;4.43;;;;;;;13.29;100.00;102670.28;4950052;29;20051;-68
2023/05/31 06:43:28;;;;;;;9.00;3.55;;;;;;;13.28;100.00;102655.41;4949007;29;20101;-68
2023/05/31 06:45:55;;;;;;;14.35;4.25;;;;;;;13.25;100.00;102658.94;4950299;28;20396;-68
2023/05/31 06:48:22;;;;;;;12.82;3.95;;;;;;;13.11;100.00;102664.44;4949683;29;20053;-68
2023/05/31 06:50:48;;;;;;;10.93;4.13;;;;;;;13.15;100.00;102648.63;4964247;28;20057;-68
2023/05/31 06:53:15;;;;;;;15.57;5.07;;;;;;;13.16;100.00;102658.25;4959156;28;20568;-68
2023/05/31 06:55:42;;;;;;;10.05;4.15;;;;;;;13.21;100.00;102646.75;4955794;28;20055;-68
2023/05/31 06:58:09;;;;;;;15.60;5.95;;;;;;;13.04;100.00;102641.78;4961432;28;20049;-68
2023/05/31 07:00:35;;;;;;;10.50;4.35;;;;;;;13.15;100.00;102651.25;4953445;28;20283;-68
2023/05/31 07:03:02;;;;;;;12.88;3.88;;;;;;;13.20;100.00;102639.72;4952131;28;20413;-68
2023/05/31 07:05:30;;;;;;;12.50;3.97;;;;;;;13.21;100.00;102646.75;4951763;28;20040;-68
2023/05/31 07:07:57;;;;;;;12.43;4.70;;;;;;;13.29;100.00;102644.81;4961714;28;20130;-68
2023/05/31 07:10:23;;;;;;;12.45;5.15;;;;;;;13.24;100.00;102649.34;4958507;28;20134;-68
2023/05/31 07:12:50;;;;;;;11.63;5.18;;;;;;;13.35;100.00;102641.28;4959939;28;20051;-68
2023/05/31 07:15:17;;;;;;;14.68;5.93;;;;;;;13.28;100.00;102642.25;4960702;28;20047;-68
2023/05/31 07:17:44;;;;;;;12.05;5.03;;;;;;;13.22;100.00;102647.59;4953955;28;20134;-68
2023/05/31 07:20:13;;;;;;;13.90;5.25;;;;;;;13.11;100.00;102653.91;4954381;28;20051;-68
2023/05/31 07:22:40;;;;;;;11.43;5.00;;;;;;;13.17;100.00;102649.44;4960025;28;20088;-68
2023/05/31 07:25:07;;;;;;;14.30;5.93;;;;;;;13.22;100.00;102648.47;4961316;28;20083;-68
2023/05/31 07:27:34;;;;;;;16.02;4.13;;;;;;;13.22;100.00;102651.09;4958468;28;20782;-68
2023/05/31 07:30:00;;;;;;;13.77;6.10;;;;;;;13.20;100.00;102644.13;4953037;28;20135;-68
2023/05/31 07:32:27;;;;;;;12.93;4.25;;;;;;;13.16;100.00;102645.09;4958322;28;20047;-68
2023/05/31 07:34:55;;;;;;;12.10;4.20;;;;;;;13.11;100.00;102647.81;4957187;28;20082;-68
2023/05/31 07:37:30;;;;;;;16.98;5.57;;;;;;;12.91;100.00;102629.75;4956751;28;20137;-68
2023/05/31 07:39:58;;;;;;;13.07;5.43;;;;;;;13.12;100.00;102636.41;4960974;28;20047;-68
2023/05/31 07:42:24;;;;;;;11.43;5.10;;;;;;;13.12;100.00;102636.41;4957497;28;20087;-68
2023/05/31 07:44:51;;;;;;;13.73;5.63;;;;;;;13.02;100.00;102633.06;4955630;28;20057;-68
2023/05/31 07:47:20;;;;;;;12.75;6.18;;;;;;;13.27;100.00;102630.84;4956048;28;20051;-68
2023/05/31 07:49:46;;;;;;;11.38;5.28;;;;;;;13.32;100.00;102640.47;4960041;28;20042;-69
2023/05/31 07:52:14;;;;;;;12.50;5.10;;;;;;;13.33;100.00;102629.03;4953700;28;20382;-68
2023/05/31 07:54:41;;;;;;;13.48;5.47;;;;;;;13.18;100.00;102636.28;4957234;28;20125;-68
2023/05/31 07:57:08;;;;;;;14.93;6.18;;;;;;;13.41;100.00;102635.88;4966191;28;20486;-68
2023/05/31 07:59:35;;;;;;;11.25;5.05;;;;;;;13.43;100.00;102634.06;4963103;28;20130;-68
2023/05/31 08:02:04;;;;;;;12.13;4.28;;;;;;;13.32;100.00;102606.25;4958817;28;20043;-68
2023/05/31 08:04:31;;;;;;;17.13;7.15;;;;;;;13.29;100.00;102630.81;4966574;28;20043;-68
2023/05/31 08:06:58;;;;;;;13.55;5.93;;;;;;;13.31;100.00;102631.69;4962333;28;20054;-68
2023/05/31 08:09:26;;;;;;;15.52;7.80;;;;;;;13.10;100.00;102630.28;4948029;28;20047;-68
2023/05/31 08:11:53;;;;;;;14.68;6.47;;;;;;;13.20;100.00;102628.34;4963267;28;20054;-68
2023/05/31 08:14:20;;;;;;;13.90;5.18;;;;;;;13.34;100.00;102636.88;4954486;28;20047;-68
2023/05/31 08:16:49;;;;;;;13.73;5.13;;;;;;;13.35;100.00;102637.75;4954903;28;20130;-68
2023/05/31 08:19:16;;;;;;;15.93;6.40;;;;;;;13.05;100.00;102617.22;4955540;28;20054;-68
2023/05/31 08:21:45;;;;;;;14.38;4.60;;;;;;;13.35;100.00;102627.22;4940771;28;20053;-68
2023/05/31 08:24:12;;;;;;;10.70;4.95;;;;;;;13.36;100.00;102627.19;4959881;28;20046;-68
2023/05/31 08:26:39;;;;;;;11.63;5.30;;;;;;;13.30;100.00;102624.66;4953999;28;20097;-69
2023/05/31 08:29:06;;;;;;;15.82;8.02;;;;;;;13.04;100.00;102626.00;4954266;29;20146;-68
2023/05/31 08:31:34;;;;;;;14.35;5.93;;;;;;;13.29;100.00;102630.81;4960279;28;20473;-68
2023/05/31 08:34:01;;;;;;;12.55;5.75;;;;;;;13.21;100.00;102628.34;4956332;28;20191;-67
2023/05/31 08:36:28;;;;;;;13.30;5.75;;;;;;;13.30;100.00;102615.00;4952358;28;20090;-68
2023/05/31 08:38:55;;;;;;;10.60;4.32;;;;;;;13.41;100.00;102620.09;4954032;28;20059;-68
2023/05/31 08:41:23;;;;;;;13.65;4.68;;;;;;;13.65;100.00;102617.84;4953643;28;20047;-68
2023/05/31 08:43:49;;;;;;;15.45;7.03;;;;;;;13.54;100.00;102628.59;4953992;28;20055;-68
2023/05/31 08:46:19;;;;;;;12.63;5.70;;;;;;;13.44;100.00;102625.31;4953581;28;20063;-67
2023/05/31 08:49:13;;;;;;;12.45;5.55;;;;;;;13.47;100.00;102609.47;4954007;29;20047;-68
2023/05/31 08:51:40;;;;;;;13.43;5.85;;;;;;;13.62;100.00;102607.41;4954243;28;20055;-68
2023/05/31 08:54:10;;;;;;;11.32;5.47;;;;;;;13.37;100.00;102599.13;4953198;28;20051;-67
2023/05/31 08:56:38;;;;;;;11.70;4.75;;;;;;;13.55;100.00;102614.56;4951681;29;20492;-68
2023/05/31 08:59:11;;;;;;;11.48;5.47;;;;;;;13.35;100.00;102603.53;4953748;29;20514;-67
2023/05/31 09:01:38;;;;;;;10.77;4.90;;;;;;;13.53;100.00;102594.41;4961515;28;20058;-68
2023/05/31 09:04:06;;;;;;;9.95;4.38;;;;;;;13.67;100.00;102595.88;4968011;28;20496;-68
2023/05/31 09:06:34;;;;;;;14.35;6.95;;;;;;;13.58;100.00;102608.34;4951676;28;20051;-67
2023/05/31 09:09:01;;;;;;;11.48;5.00;;;;;;;13.66;100.00;102596.75;4953207;28;20054;-67
2023/05/31 09:11:28;;;;;;;13.23;5.72;;;;;;;13.74;100.00;102609.78;4957385;28;20137;-68
2023/05/31 09:13:55;;;;;;;11.10;4.38;;;;;;;13.59;100.00;102600.44;4952374;28;20055;-69
2023/05/31 09:16:23;;;;;;;9.05;4.28;;;;;;;13.65;100.00;102607.31;4951421;28;20047;-68
2023/05/31 09:19:01;;;;;;;10.13;4.25;;;;;;;13.83;100.00;102598.19;4952195;29;20106;-68
2023/05/31 09:21:28;;;;;;;13.60;5.47;;;;;;;13.72;100.00;102613.34;4952640;28;20130;-68
2023/05/31 09:23:57;;;;;;;9.13;4.15;;;;;;;13.59;100.00;102612.72;4953336;29;20055;-68
2023/05/31 09:26:24;;;;;;;9.63;4.65;;;;;;;13.78;100.00;102621.13;4952386;29;20059;-68
2023/05/31 09:28:52;;;;;;;11.57;5.40;;;;;;;13.83;100.00;102600.84;4952588;28;20059;-68
2023/05/31 09:31:19;;;;;;;11.10;4.93;;;;;;;13.77;100.00;102599.16;4952553;29;20449;-68
2023/05/31 09:33:48;;;;;;;20.85;5.47;;;;;;;13.66;100.00;102606.44;4951890;28;20053;-68
2023/05/31 09:36:24;;;;;;;10.25;4.45;;;;;;;13.59;100.00;102610.97;4950842;28;20047;-68
2023/05/31 09:39:00;;;;;;;13.32;4.95;;;;;;;13.76;100.00;102612.41;4938844;29;20047;-69
2023/05/31 09:41:28;;;;;;;14.98;7.43;;;;;;;13.65;100.00;102604.69;4951204;29;20055;-68
2023/05/31 09:43:54;;;;;;;11.38;5.07;;;;;;;13.70;100.00;102601.97;4952700;29;20137;-68
2023/05/31 09:46:22;;;;;;;13.82;5.82;;;;;;;13.69;100.00;102590.59;4953077;29;20079;-68
2023/05/31 09:48:58;;;;;;;16.23;7.00;;;;;;;13.70;100.00;102608.09;4953048;29;20051;-68
2023/05/31 09:51:25;;;;;;;11.23;5.10;;;;;;;13.63;100.00;102607.38;4953189;29;20063;-69
2023/05/31 09:53:55;;;;;;;13.70;6.18;;;;;;;13.55;100.00;102598.75;4952403;28;20202;-69
2023/05/31 09:56:23;;;;;;;12.93;6.50;;;;;;;13.55;100.00;102595.28;4951648;29;20051;-68
2023/05/31 09:58:51;;;;;;;18.60;7.90;;;;;;;13.47;100.00;102605.94;4952741;29;20083;-68
2023/05/31 10:01:19;;;;;;;10.95;5.28;;;;;;;13.51;100.00;102590.94;4952303;29;20134;-68
2023/05/31 10:03:48;;;;;;;12.80;6.75;;;;;;;13.67;100.00;102592.41;4954405;28;20055;-69
2023/05/31 10:06:19;;;;;;;11.25;6.05;;;;;;;13.50;100.00;102608.50;4965960;28;20165;-68
2023/05/31 10:08:46;;;;;;;13.52;5.30;;;;;;;13.63;100.00;102590.69;4957776;28;20051;-69
2023/05/31 10:11:16;;;;;;;12.30;5.78;;;;;;;13.75;100.00;102600.13;4952071;28;20401;-69
2023/05/31 10:13:46;;;;;;;12.82;5.88;;;;;;;13.70;100.00;102591.44;4952054;29;20130;-69
2023/05/31 10:16:15;;;;;;;12.90;5.93;;;;;;;13.68;100.00;102605.50;4952017;29;20069;-69
2023/05/31 10:18:48;;;;;;;11.75;5.38;;;;;;;13.72;100.00;102576.47;4951862;28;20121;-69
2023/05/31 10:21:22;;;;;;;11.60;5.90;;;;;;;13.58;100.00;102582.03;4954054;28;20055;-69
2023/05/31 10:24:07;;;;;;;13.23;5.93;;;;;;;13.98;100.00;102597.84;4952690;29;20132;-69
2023/05/31 10:27:11;;;;;;;12.27;5.25;;;;;;;13.94;100.00;102597.97;4954946;28;20454;-69
2023/05/31 10:29:51;;;;;;;11.73;5.40;;;;;;;13.66;100.00;102575.72;4957428;28;20065;-69
2023/05/31 10:32:29;;;;;;;14.18;6.93;;;;;;;13.75;100.00;102598.34;4954868;28;20538;-69
2023/05/31 10:34:56;;;;;;;12.50;5.68;;;;;;;13.80;100.00;102590.34;4954087;28;20046;-69
2023/05/31 10:37:25;;;;;;;13.30;5.10;;;;;;;14.00;100.00;102601.31;4951870;28;20062;-69
2023/05/31 10:40:09;;;;;;;12.75;5.28;;;;;;;13.94;100.00;102593.56;4952683;28;20134;-69
2023/05/31 10:42:45;;;;;;;12.07;5.35;;;;;;;14.05;100.00;102598.56;4952008;28;20054;-69
2023/05/31 10:45:18;;;;;;;13.35;5.95;;;;;;;14.08;100.00;102597.63;4951395;28;20057;-69
2023/05/31 10:47:51;;;;;;;10.77;5.07;;;;;;;14.17;100.00;102593.03;4951988;28;20130;-69
2023/05/31 10:50:22;;;;;;;13.35;5.95;;;;;;;14.03;100.00;102587.22;4952119;29;20058;-69
2023/05/31 10:52:52;;;;;;;14.75;6.20;;;;;;;14.33;100.00;102606.72;4952506;29;20154;-69
2023/05/31 10:55:21;;;;;;;10.65;4.65;;;;;;;14.16;100.00;102609.72;4950727;28;20130;-69
2023/05/31 10:57:55;;;;;;;12.80;5.22;;;;;;;14.12;100.00;102608.06;4951535;29;20417;-69
2023/05/31 11:00:23;;;;;;;11.38;5.03;;;;;;;14.00;100.00;102605.72;4951733;29;20138;-69
2023/05/31 11:02:54;;;;;;;14.95;5.22;;;;;;;13.89;100.00;102611.22;4951807;29;20150;-69
2023/05/31 11:05:24;;;;;;;11.15;4.10;;;;;;;13.80;100.00;102604.38;4950381;28;20169;-69
2023/05/31 11:07:53;;;;;;;9.15;4.13;;;;;;;13.77;100.00;102607.06;4950502;29;20051;-70
2023/05/31 11:10:25;;;;;;;14.00;5.35;;;;;;;13.86;100.00;102603.38;4948055;29;20059;-69
2023/05/31 11:12:55;;;;;;;9.13;3.85;;;;;;;14.06;100.00;102610.84;4951972;29;20171;-69
2023/05/31 11:15:22;;;;;;;9.73;4.30;;;;;;;13.95;100.00;102610.22;4943734;28;20102;-69
2023/05/31 11:17:54;;;;;;;10.50;4.47;;;;;;;13.90;100.00;102609.44;4947624;28;20055;-69